sensor_id;sensor_type;location;lat;lon;timestamp;P1;durP1;ratioP1;P2;durP2;ratioP2
47381;SDS011;33128;51.580;5.170;2023-04-03T00:01:07;16.95;;;15.45;;
47381;SDS011;33128;51.580;5.170;2023-04-03T00:03:33;12.80;;;12.07;;
47381;SDS011;33128;51.580;5.170;2023-04-03T00:05:59;20.23;;;15.07;;
47381;SDS011;33128;51.580;5.170;2023-04-03T00:08:25;17.13;;;15.32;;
47381;SDS011;33128;51.580;5.170;2023-04-03T00:10:51;17.63;;;15.20;;
47381;SDS011;33128;51.580;5.170;2023-04-03T00:13:17;19.25;;;17.70;;
47381;SDS011;33128;51.580;5.170;2023-04-03T00:15:43;35.92;;;32.40;;
47381;SDS011;33128;51.580;5.170;2023-04-03T00:18:09;17.52;;;15.82;;
47381;SDS011;33128;51.580;5.170;2023-04-03T00:20:35;16.85;;;15.70;;
47381;SDS011;33128;51.580;5.170;2023-04-03T00:23:01;24.15;;;21.77;;
47381;SDS011;33128;51.580;5.170;2023-04-03T00:25:27;14.90;;;14.05;;
47381;SDS011;33128;51.580;5.170;2023-04-03T00:27:53;19.67;;;16.17;;
47381;SDS011;33128;51.580;5.170;2023-04-03T00:30:20;15.35;;;14.30;;
47381;SDS011;33128;51.580;5.170;2023-04-03T00:32:47;23.88;;;21.25;;
47381;SDS011;33128;51.580;5.170;2023-04-03T00:35:14;16.77;;;15.25;;
47381;SDS011;33128;51.580;5.170;2023-04-03T00:37:41;38.85;;;35.20;;
47381;SDS011;33128;51.580;5.170;2023-04-03T00:40:07;15.30;;;14.20;;
47381;SDS011;33128;51.580;5.170;2023-04-03T00:42:35;14.43;;;13.50;;
47381;SDS011;33128;51.580;5.170;2023-04-03T00:47:28;71.53;;;64.68;;
47381;SDS011;33128;51.580;5.170;2023-04-03T00:49:55;63.97;;;56.92;;
47381;SDS011;33128;51.580;5.170;2023-04-03T00:52:23;13.82;;;13.02;;
47381;SDS011;33128;51.580;5.170;2023-04-03T00:54:54;19.35;;;16.80;;
47381;SDS011;33128;51.580;5.170;2023-04-03T00:57:24;13.73;;;12.73;;
47381;SDS011;33128;51.580;5.170;2023-04-03T00:59:52;42.17;;;34.65;;
47381;SDS011;33128;51.580;5.170;2023-04-03T01:02:21;15.10;;;14.05;;
47381;SDS011;33128;51.580;5.170;2023-04-03T01:04:47;20.90;;;17.48;;
47381;SDS011;33128;51.580;5.170;2023-04-03T01:09:43;18.20;;;16.80;;
47381;SDS011;33128;51.580;5.170;2023-04-03T01:12:18;173.90;;;153.82;;
47381;SDS011;33128;51.580;5.170;2023-04-03T01:14:59;27.25;;;21.13;;
47381;SDS011;33128;51.580;5.170;2023-04-03T01:25:23;16.65;;;15.30;;
47381;SDS011;33128;51.580;5.170;2023-04-03T01:27:49;19.58;;;16.85;;
47381;SDS011;33128;51.580;5.170;2023-04-03T01:30:16;16.60;;;15.07;;
47381;SDS011;33128;51.580;5.170;2023-04-03T01:32:44;23.98;;;18.77;;
47381;SDS011;33128;51.580;5.170;2023-04-03T01:35:10;16.88;;;15.30;;
47381;SDS011;33128;51.580;5.170;2023-04-03T01:37:35;14.40;;;13.52;;
47381;SDS011;33128;51.580;5.170;2023-04-03T01:40:01;17.75;;;15.95;;
47381;SDS011;33128;51.580;5.170;2023-04-03T01:42:31;14.55;;;13.63;;
47381;SDS011;33128;51.580;5.170;2023-04-03T01:44:56;29.02;;;19.98;;
47381;SDS011;33128;51.580;5.170;2023-04-03T01:47:22;15.48;;;14.45;;
47381;SDS011;33128;51.580;5.170;2023-04-03T01:49:49;15.93;;;14.77;;
47381;SDS011;33128;51.580;5.170;2023-04-03T01:52:14;14.68;;;13.88;;
47381;SDS011;33128;51.580;5.170;2023-04-03T01:54:40;41.28;;;37.97;;
47381;SDS011;33128;51.580;5.170;2023-04-03T01:57:05;15.75;;;14.77;;
47381;SDS011;33128;51.580;5.170;2023-04-03T01:59:31;14.00;;;13.32;;
47381;SDS011;33128;51.580;5.170;2023-04-03T02:01:57;17.90;;;16.05;;
47381;SDS011;33128;51.580;5.170;2023-04-03T02:04:22;14.18;;;13.35;;
47381;SDS011;33128;51.580;5.170;2023-04-03T02:06:48;16.67;;;14.98;;
47381;SDS011;33128;51.580;5.170;2023-04-03T02:09:14;14.60;;;13.60;;
47381;SDS011;33128;51.580;5.170;2023-04-03T02:11:39;22.80;;;21.13;;
47381;SDS011;33128;51.580;5.170;2023-04-03T02:14:05;16.55;;;15.25;;
47381;SDS011;33128;51.580;5.170;2023-04-03T02:16:31;13.43;;;12.27;;
47381;SDS011;33128;51.580;5.170;2023-04-03T02:18:57;19.20;;;14.60;;
47381;SDS011;33128;51.580;5.170;2023-04-03T02:21:23;13.60;;;12.90;;
47381;SDS011;33128;51.580;5.170;2023-04-03T02:23:48;14.55;;;13.60;;
47381;SDS011;33128;51.580;5.170;2023-04-03T02:26:14;15.48;;;14.38;;
47381;SDS011;33128;51.580;5.170;2023-04-03T02:28:41;13.65;;;12.90;;
47381;SDS011;33128;51.580;5.170;2023-04-03T02:31:07;15.55;;;14.32;;
47381;SDS011;33128;51.580;5.170;2023-04-03T02:33:34;372.42;;;328.70;;
47381;SDS011;33128;51.580;5.170;2023-04-03T02:36:03;23.92;;;17.63;;
47381;SDS011;33128;51.580;5.170;2023-04-03T02:38:30;53.55;;;48.03;;
47381;SDS011;33128;51.580;5.170;2023-04-03T02:41:03;90.00;;;70.93;;
47381;SDS011;33128;51.580;5.170;2023-04-03T02:43:30;18.60;;;17.20;;
47381;SDS011;33128;51.580;5.170;2023-04-03T02:45:56;331.38;;;296.60;;
47381;SDS011;33128;51.580;5.170;2023-04-03T02:48:22;15.52;;;14.00;;
47381;SDS011;33128;51.580;5.170;2023-04-03T02:50:48;52.13;;;47.75;;
47381;SDS011;33128;51.580;5.170;2023-04-03T02:53:14;73.75;;;67.60;;
47381;SDS011;33128;51.580;5.170;2023-04-03T02:55:40;52.58;;;49.28;;
47381;SDS011;33128;51.580;5.170;2023-04-03T02:58:05;130.13;;;115.88;;
47381;SDS011;33128;51.580;5.170;2023-04-03T03:00:31;277.23;;;251.25;;
47381;SDS011;33128;51.580;5.170;2023-04-03T03:02:57;88.15;;;81.80;;
47381;SDS011;33128;51.580;5.170;2023-04-03T03:05:22;61.45;;;58.25;;
47381;SDS011;33128;51.580;5.170;2023-04-03T03:07:51;41.08;;;37.15;;
47381;SDS011;33128;51.580;5.170;2023-04-03T03:10:17;254.30;;;227.02;;
47381;SDS011;33128;51.580;5.170;2023-04-03T03:12:42;34.08;;;32.40;;
47381;SDS011;33128;51.580;5.170;2023-04-03T03:15:08;12.25;;;11.85;;
47381;SDS011;33128;51.580;5.170;2023-04-03T03:17:34;12.43;;;11.93;;
47381;SDS011;33128;51.580;5.170;2023-04-03T03:20:01;11.32;;;10.93;;
47381;SDS011;33128;51.580;5.170;2023-04-03T03:22:27;12.65;;;12.15;;
47381;SDS011;33128;51.580;5.170;2023-04-03T03:24:53;11.85;;;11.45;;
47381;SDS011;33128;51.580;5.170;2023-04-03T03:27:19;12.95;;;12.25;;
47381;SDS011;33128;51.580;5.170;2023-04-03T03:29:45;12.38;;;11.65;;
47381;SDS011;33128;51.580;5.170;2023-04-03T03:32:11;12.63;;;11.93;;
47381;SDS011;33128;51.580;5.170;2023-04-03T03:34:37;11.00;;;10.50;;
47381;SDS011;33128;51.580;5.170;2023-04-03T03:37:02;10.50;;;10.10;;
47381;SDS011;33128;51.580;5.170;2023-04-03T03:39:28;11.10;;;10.60;;
47381;SDS011;33128;51.580;5.170;2023-04-03T03:41:54;13.50;;;12.52;;
47381;SDS011;33128;51.580;5.170;2023-04-03T03:44:22;12.25;;;11.65;;
47381;SDS011;33128;51.580;5.170;2023-04-03T03:46:48;10.82;;;10.43;;
47381;SDS011;33128;51.580;5.170;2023-04-03T03:49:14;11.40;;;11.00;;
47381;SDS011;33128;51.580;5.170;2023-04-03T03:51:39;11.98;;;11.57;;
47381;SDS011;33128;51.580;5.170;2023-04-03T03:54:05;16.02;;;14.93;;
47381;SDS011;33128;51.580;5.170;2023-04-03T03:56:32;12.60;;;12.10;;
47381;SDS011;33128;51.580;5.170;2023-04-03T03:58:57;12.23;;;11.73;;
47381;SDS011;33128;51.580;5.170;2023-04-03T04:01:23;29.73;;;28.40;;
47381;SDS011;33128;51.580;5.170;2023-04-03T04:03:49;13.38;;;12.60;;
47381;SDS011;33128;51.580;5.170;2023-04-03T04:06:15;12.27;;;11.77;;
47381;SDS011;33128;51.580;5.170;2023-04-03T04:08:41;269.15;;;253.25;;
47381;SDS011;33128;51.580;5.170;2023-04-03T04:11:10;34.35;;;31.13;;
47381;SDS011;33128;51.580;5.170;2023-04-03T04:13:36;57.75;;;53.80;;
47381;SDS011;33128;51.580;5.170;2023-04-03T04:16:01;15.15;;;13.73;;
47381;SDS011;33128;51.580;5.170;2023-04-03T04:18:27;141.10;;;130.90;;
47381;SDS011;33128;51.580;5.170;2023-04-03T04:20:52;15.90;;;14.30;;
47381;SDS011;33128;51.580;5.170;2023-04-03T04:23:18;12.18;;;11.38;;
47381;SDS011;33128;51.580;5.170;2023-04-03T04:25:44;227.20;;;211.65;;
47381;SDS011;33128;51.580;5.170;2023-04-03T04:28:11;425.42;;;394.85;;
47381;SDS011;33128;51.580;5.170;2023-04-03T04:30:37;13.07;;;12.15;;
47381;SDS011;33128;51.580;5.170;2023-04-03T04:33:03;389.73;;;360.05;;
47381;SDS011;33128;51.580;5.170;2023-04-03T04:35:28;12.52;;;11.60;;
47381;SDS011;33128;51.580;5.170;2023-04-03T04:37:54;16.50;;;14.10;;
47381;SDS011;33128;51.580;5.170;2023-04-03T04:40:19;16.80;;;15.65;;
47381;SDS011;33128;51.580;5.170;2023-04-03T04:42:45;16.85;;;13.45;;
47381;SDS011;33128;51.580;5.170;2023-04-03T04:45:11;36.20;;;30.02;;
47381;SDS011;33128;51.580;5.170;2023-04-03T04:47:37;142.48;;;132.65;;
47381;SDS011;33128;51.580;5.170;2023-04-03T04:50:03;12.15;;;11.15;;
47381;SDS011;33128;51.580;5.170;2023-04-03T04:52:29;11.95;;;11.35;;
47381;SDS011;33128;51.580;5.170;2023-04-03T04:54:55;14.48;;;12.88;;
47381;SDS011;33128;51.580;5.170;2023-04-03T04:57:20;11.25;;;10.65;;
47381;SDS011;33128;51.580;5.170;2023-04-03T04:59:49;242.63;;;224.98;;
47381;SDS011;33128;51.580;5.170;2023-04-03T05:02:15;12.23;;;11.15;;
47381;SDS011;33128;51.580;5.170;2023-04-03T05:04:40;12.05;;;11.23;;
47381;SDS011;33128;51.580;5.170;2023-04-03T05:07:06;439.70;;;401.10;;
47381;SDS011;33128;51.580;5.170;2023-04-03T05:09:32;11.15;;;10.60;;
47381;SDS011;33128;51.580;5.170;2023-04-03T05:11:57;29.00;;;27.60;;
47381;SDS011;33128;51.580;5.170;2023-04-03T05:14:23;34.92;;;33.15;;
47381;SDS011;33128;51.580;5.170;2023-04-03T05:16:48;11.68;;;11.18;;
47381;SDS011;33128;51.580;5.170;2023-04-03T05:19:18;13.05;;;12.50;;
47381;SDS011;33128;51.580;5.170;2023-04-03T05:21:45;16.95;;;16.00;;
47381;SDS011;33128;51.580;5.170;2023-04-03T05:24:11;15.60;;;11.15;;
47381;SDS011;33128;51.580;5.170;2023-04-03T05:26:37;9.60;;;9.20;;
47381;SDS011;33128;51.580;5.170;2023-04-03T05:29:03;10.13;;;9.73;;
47381;SDS011;33128;51.580;5.170;2023-04-03T05:31:29;9.80;;;9.50;;
47381;SDS011;33128;51.580;5.170;2023-04-03T05:33:55;9.80;;;9.50;;
47381;SDS011;33128;51.580;5.170;2023-04-03T05:36:21;9.70;;;9.30;;
47381;SDS011;33128;51.580;5.170;2023-04-03T05:38:47;8.77;;;8.48;;
47381;SDS011;33128;51.580;5.170;2023-04-03T05:41:13;100.95;;;94.70;;
47381;SDS011;33128;51.580;5.170;2023-04-03T05:43:39;9.20;;;8.90;;
47381;SDS011;33128;51.580;5.170;2023-04-03T05:46:09;10.43;;;9.98;;
47381;SDS011;33128;51.580;5.170;2023-04-03T05:48:36;9.77;;;9.38;;
47381;SDS011;33128;51.580;5.170;2023-04-03T05:51:02;11.30;;;10.90;;
47381;SDS011;33128;51.580;5.170;2023-04-03T05:53:29;10.30;;;9.90;;
47381;SDS011;33128;51.580;5.170;2023-04-03T05:55:58;10.00;;;9.60;;
47381;SDS011;33128;51.580;5.170;2023-04-03T05:58:23;9.00;;;8.70;;
47381;SDS011;33128;51.580;5.170;2023-04-03T06:00:49;9.20;;;8.90;;
47381;SDS011;33128;51.580;5.170;2023-04-03T06:03:15;8.35;;;8.05;;
47381;SDS011;33128;51.580;5.170;2023-04-03T06:05:40;10.05;;;9.45;;
47381;SDS011;33128;51.580;5.170;2023-04-03T06:08:06;9.63;;;9.27;;
47381;SDS011;33128;51.580;5.170;2023-04-03T06:10:33;8.60;;;8.30;;
47381;SDS011;33128;51.580;5.170;2023-04-03T06:13:00;10.05;;;9.65;;
47381;SDS011;33128;51.580;5.170;2023-04-03T06:15:26;9.35;;;8.95;;
47381;SDS011;33128;51.580;5.170;2023-04-03T06:17:52;9.45;;;9.15;;
47381;SDS011;33128;51.580;5.170;2023-04-03T06:20:17;10.75;;;10.27;;
47381;SDS011;33128;51.580;5.170;2023-04-03T06:22:43;9.95;;;9.45;;
47381;SDS011;33128;51.580;5.170;2023-04-03T06:25:09;10.32;;;9.93;;
47381;SDS011;33128;51.580;5.170;2023-04-03T06:27:35;10.80;;;10.40;;
47381;SDS011;33128;51.580;5.170;2023-04-03T06:30:00;9.55;;;9.25;;
47381;SDS011;33128;51.580;5.170;2023-04-03T06:32:26;11.05;;;10.52;;
47381;SDS011;33128;51.580;5.170;2023-04-03T06:34:52;12.15;;;11.55;;
47381;SDS011;33128;51.580;5.170;2023-04-03T06:37:19;9.70;;;9.40;;
47381;SDS011;33128;51.580;5.170;2023-04-03T06:39:46;11.32;;;10.75;;
47381;SDS011;33128;51.580;5.170;2023-04-03T06:42:12;9.20;;;8.52;;
47381;SDS011;33128;51.580;5.170;2023-04-03T06:44:38;10.60;;;9.82;;
47381;SDS011;33128;51.580;5.170;2023-04-03T06:47:03;9.88;;;9.48;;
47381;SDS011;33128;51.580;5.170;2023-04-03T06:49:29;9.38;;;9.05;;
47381;SDS011;33128;51.580;5.170;2023-04-03T06:51:55;9.50;;;9.20;;
47381;SDS011;33128;51.580;5.170;2023-04-03T06:54:21;9.88;;;9.48;;
47381;SDS011;33128;51.580;5.170;2023-04-03T06:56:47;9.57;;;9.23;;
47381;SDS011;33128;51.580;5.170;2023-04-03T06:59:13;10.13;;;9.63;;
47381;SDS011;33128;51.580;5.170;2023-04-03T07:01:39;10.48;;;9.98;;
47381;SDS011;33128;51.580;5.170;2023-04-03T07:04:05;9.30;;;9.00;;
47381;SDS011;33128;51.580;5.170;2023-04-03T07:06:32;8.70;;;8.40;;
47381;SDS011;33128;51.580;5.170;2023-04-03T07:08:58;9.43;;;8.93;;
47381;SDS011;33128;51.580;5.170;2023-04-03T07:11:25;9.55;;;9.05;;
47381;SDS011;33128;51.580;5.170;2023-04-03T07:13:51;10.32;;;9.90;;
47381;SDS011;33128;51.580;5.170;2023-04-03T07:16:17;9.10;;;8.80;;
47381;SDS011;33128;51.580;5.170;2023-04-03T07:18:44;11.63;;;10.98;;
47381;SDS011;33128;51.580;5.170;2023-04-03T07:21:09;10.48;;;9.95;;
47381;SDS011;33128;51.580;5.170;2023-04-03T07:23:35;9.18;;;8.88;;
47381;SDS011;33128;51.580;5.170;2023-04-03T07:26:02;8.85;;;8.52;;
47381;SDS011;33128;51.580;5.170;2023-04-03T07:28:27;13.15;;;12.23;;
47381;SDS011;33128;51.580;5.170;2023-04-03T07:30:59;9.35;;;8.95;;
47381;SDS011;33128;51.580;5.170;2023-04-03T07:33:27;10.10;;;9.65;;
47381;SDS011;33128;51.580;5.170;2023-04-03T07:35:52;9.05;;;8.70;;
47381;SDS011;33128;51.580;5.170;2023-04-03T07:38:18;8.65;;;8.35;;
47381;SDS011;33128;51.580;5.170;2023-04-03T07:40:47;9.13;;;8.80;;
47381;SDS011;33128;51.580;5.170;2023-04-03T07:43:15;14.55;;;8.50;;
47381;SDS011;33128;51.580;5.170;2023-04-03T07:45:42;9.68;;;9.18;;
47381;SDS011;33128;51.580;5.170;2023-04-03T07:48:08;8.65;;;8.25;;
47381;SDS011;33128;51.580;5.170;2023-04-03T07:50:35;8.95;;;8.65;;
47381;SDS011;33128;51.580;5.170;2023-04-03T07:53:01;9.48;;;9.07;;
47381;SDS011;33128;51.580;5.170;2023-04-03T07:55:27;9.25;;;8.95;;
47381;SDS011;33128;51.580;5.170;2023-04-03T07:57:53;9.75;;;9.40;;
47381;SDS011;33128;51.580;5.170;2023-04-03T08:00:20;10.50;;;10.00;;
47381;SDS011;33128;51.580;5.170;2023-04-03T08:02:46;9.30;;;8.90;;
47381;SDS011;33128;51.580;5.170;2023-04-03T08:05:17;9.25;;;8.95;;
47381;SDS011;33128;51.580;5.170;2023-04-03T08:07:43;8.93;;;8.30;;
47381;SDS011;33128;51.580;5.170;2023-04-03T08:10:10;10.00;;;9.20;;
47381;SDS011;33128;51.580;5.170;2023-04-03T08:12:35;9.77;;;9.38;;
47381;SDS011;33128;51.580;5.170;2023-04-03T08:15:02;9.68;;;9.27;;
47381;SDS011;33128;51.580;5.170;2023-04-03T08:17:28;10.43;;;9.68;;
47381;SDS011;33128;51.580;5.170;2023-04-03T08:19:54;9.13;;;8.73;;
47381;SDS011;33128;51.580;5.170;2023-04-03T08:22:20;9.40;;;9.00;;
47381;SDS011;33128;51.580;5.170;2023-04-03T08:24:46;9.90;;;9.40;;
47381;SDS011;33128;51.580;5.170;2023-04-03T08:27:11;9.57;;;9.18;;
47381;SDS011;33128;51.580;5.170;2023-04-03T08:29:40;9.27;;;8.98;;
47381;SDS011;33128;51.580;5.170;2023-04-03T08:32:05;9.65;;;9.25;;
47381;SDS011;33128;51.580;5.170;2023-04-03T08:34:31;9.20;;;8.80;;
47381;SDS011;33128;51.580;5.170;2023-04-03T08:36:59;9.20;;;8.90;;
47381;SDS011;33128;51.580;5.170;2023-04-03T08:39:25;10.10;;;9.68;;
47381;SDS011;33128;51.580;5.170;2023-04-03T08:41:52;9.52;;;9.07;;
47381;SDS011;33128;51.580;5.170;2023-04-03T08:44:25;9.93;;;9.50;;
47381;SDS011;33128;51.580;5.170;2023-04-03T08:47:15;9.07;;;8.77;;
47381;SDS011;33128;51.580;5.170;2023-04-03T08:50:11;9.02;;;8.73;;
47381;SDS011;33128;51.580;5.170;2023-04-03T08:52:47;9.25;;;8.90;;
47381;SDS011;33128;51.580;5.170;2023-04-03T08:55:29;8.68;;;8.38;;
47381;SDS011;33128;51.580;5.170;2023-04-03T08:58:00;9.05;;;8.75;;
47381;SDS011;33128;51.580;5.170;2023-04-03T09:03:28;8.52;;;8.23;;
47381;SDS011;33128;51.580;5.170;2023-04-03T09:06:11;9.00;;;8.60;;
47381;SDS011;33128;51.580;5.170;2023-04-03T09:08:45;7.80;;;7.60;;
47381;SDS011;33128;51.580;5.170;2023-04-03T09:14:43;9.07;;;8.68;;
47381;SDS011;33128;51.580;5.170;2023-04-03T09:22:45;8.10;;;7.80;;
47381;SDS011;33128;51.580;5.170;2023-04-03T09:25:21;8.00;;;7.70;;
47381;SDS011;33128;51.580;5.170;2023-04-03T09:27:59;8.52;;;8.05;;
47381;SDS011;33128;51.580;5.170;2023-04-03T09:30:26;8.07;;;7.78;;
47381;SDS011;33128;51.580;5.170;2023-04-03T09:32:53;7.32;;;7.13;;
47381;SDS011;33128;51.580;5.170;2023-04-03T09:35:24;7.55;;;7.35;;
47381;SDS011;33128;51.580;5.170;2023-04-03T09:37:53;7.57;;;7.28;;
47381;SDS011;33128;51.580;5.170;2023-04-03T09:40:28;8.15;;;7.85;;
47381;SDS011;33128;51.580;5.170;2023-04-03T09:42:57;8.20;;;7.90;;
47381;SDS011;33128;51.580;5.170;2023-04-03T09:48:17;7.80;;;7.50;;
47381;SDS011;33128;51.580;5.170;2023-04-03T10:01:35;8.15;;;7.85;;
47381;SDS011;33128;51.580;5.170;2023-04-03T10:06:33;9.23;;;8.45;;
47381;SDS011;33128;51.580;5.170;2023-04-03T10:09:03;8.18;;;7.88;;
47381;SDS011;33128;51.580;5.170;2023-04-03T10:11:57;8.68;;;8.07;;
47381;SDS011;33128;51.580;5.170;2023-04-03T10:14:26;60.43;;;56.70;;
47381;SDS011;33128;51.580;5.170;2023-04-03T10:19:36;326.13;;;297.23;;
47381;SDS011;33128;51.580;5.170;2023-04-03T10:22:13;33.42;;;31.83;;
47381;SDS011;33128;51.580;5.170;2023-04-03T10:25:14;72.88;;;67.72;;
47381;SDS011;33128;51.580;5.170;2023-04-03T10:28:00;62.55;;;58.28;;
47381;SDS011;33128;51.580;5.170;2023-04-03T10:41:44;307.10;;;283.52;;
47381;SDS011;33128;51.580;5.170;2023-04-03T10:44:20;572.72;;;514.45;;
47381;SDS011;33128;51.580;5.170;2023-04-03T10:47:09;591.17;;;538.10;;
47381;SDS011;33128;51.580;5.170;2023-04-03T10:58:32;593.53;;;540.95;;
47381;SDS011;33128;51.580;5.170;2023-04-03T11:01:11;544.05;;;488.55;;
47381;SDS011;33128;51.580;5.170;2023-04-03T11:03:43;631.08;;;578.35;;
47381;SDS011;33128;51.580;5.170;2023-04-03T11:06:19;276.55;;;250.93;;
47381;SDS011;33128;51.580;5.170;2023-04-03T11:08:57;224.73;;;206.18;;
47381;SDS011;33128;51.580;5.170;2023-04-03T11:11:31;555.92;;;505.08;;
47381;SDS011;33128;51.580;5.170;2023-04-03T11:14:04;363.00;;;326.70;;
47381;SDS011;33128;51.580;5.170;2023-04-03T11:16:48;632.63;;;576.08;;
47381;SDS011;33128;51.580;5.170;2023-04-03T11:22:15;60.08;;;56.78;;
47381;SDS011;33128;51.580;5.170;2023-04-03T11:24:51;573.63;;;524.20;;
47381;SDS011;33128;51.580;5.170;2023-04-03T11:27:46;758.13;;;693.28;;
47381;SDS011;33128;51.580;5.170;2023-04-03T11:30:17;192.77;;;177.15;;
47381;SDS011;33128;51.580;5.170;2023-04-03T11:33:28;119.03;;;108.45;;
47381;SDS011;33128;51.580;5.170;2023-04-03T11:35:35;274.77;;;251.50;;
47381;SDS011;33128;51.580;5.170;2023-04-03T11:38:01;32.50;;;30.85;;
47381;SDS011;33128;51.580;5.170;2023-04-03T11:40:32;33.45;;;31.83;;
47381;SDS011;33128;51.580;5.170;2023-04-03T11:45:28;34.50;;;32.80;;
47381;SDS011;33128;51.580;5.170;2023-04-03T11:50:53;439.08;;;402.95;;
47381;SDS011;33128;51.580;5.170;2023-04-03T11:53:33;96.03;;;89.43;;
47381;SDS011;33128;51.580;5.170;2023-04-03T11:59:14;630.50;;;576.47;;
47381;SDS011;33128;51.580;5.170;2023-04-03T12:04:23;882.63;;;810.53;;
47381;SDS011;33128;51.580;5.170;2023-04-03T12:06:58;875.83;;;804.10;;
47381;SDS011;33128;51.580;5.170;2023-04-03T12:14:53;92.93;;;86.05;;
47381;SDS011;33128;51.580;5.170;2023-04-03T12:17:20;220.20;;;203.07;;
47381;SDS011;33128;51.580;5.170;2023-04-03T12:19:51;925.08;;;850.13;;
47381;SDS011;33128;51.580;5.170;2023-04-03T12:22:17;909.70;;;836.25;;
47381;SDS011;33128;51.580;5.170;2023-04-03T12:24:46;866.80;;;796.60;;
47381;SDS011;33128;51.580;5.170;2023-04-03T12:32:31;885.25;;;814.28;;
47381;SDS011;33128;51.580;5.170;2023-04-03T12:41:18;512.97;;;472.02;;
47381;SDS011;33128;51.580;5.170;2023-04-03T12:44:07;39.35;;;37.28;;
47381;SDS011;33128;51.580;5.170;2023-04-03T12:46:45;38.95;;;37.05;;
47381;SDS011;33128;51.580;5.170;2023-04-03T12:49:24;38.95;;;36.97;;
47381;SDS011;33128;51.580;5.170;2023-04-03T12:51:57;39.55;;;37.65;;
47381;SDS011;33128;51.580;5.170;2023-04-03T12:57:08;40.55;;;38.55;;
47381;SDS011;33128;51.580;5.170;2023-04-03T12:59:55;40.42;;;38.20;;
47381;SDS011;33128;51.580;5.170;2023-04-03T13:04:59;39.85;;;37.85;;
47381;SDS011;33128;51.580;5.170;2023-04-03T13:07:32;40.28;;;38.28;;
47381;SDS011;33128;51.580;5.170;2023-04-03T13:12:33;40.55;;;38.55;;
47381;SDS011;33128;51.580;5.170;2023-04-03T13:15:00;40.90;;;38.90;;
47381;SDS011;33128;51.580;5.170;2023-04-03T13:17:41;166.80;;;155.30;;
47381;SDS011;33128;51.580;5.170;2023-04-03T13:20:28;337.80;;;313.20;;
47381;SDS011;33128;51.580;5.170;2023-04-03T13:25:29;789.00;;;725.25;;
47381;SDS011;33128;51.580;5.170;2023-04-03T13:28:00;417.38;;;385.92;;
47381;SDS011;33128;51.580;5.170;2023-04-03T13:30:30;501.02;;;463.27;;
47381;SDS011;33128;51.580;5.170;2023-04-03T13:32:59;565.58;;;521.63;;
47381;SDS011;33128;51.580;5.170;2023-04-03T13:38:27;705.10;;;648.05;;
47381;SDS011;33128;51.580;5.170;2023-04-03T13:40:59;528.33;;;488.25;;
47381;SDS011;33128;51.580;5.170;2023-04-03T13:43:29;784.95;;;721.00;;
47381;SDS011;33128;51.580;5.170;2023-04-03T13:46:01;633.60;;;583.65;;
47381;SDS011;33128;51.580;5.170;2023-04-03T13:48:41;634.35;;;583.88;;
47381;SDS011;33128;51.580;5.170;2023-04-03T13:53:57;751.20;;;690.58;;
47381;SDS011;33128;51.580;5.170;2023-04-03T13:59:02;666.33;;;614.47;;
47381;SDS011;33128;51.580;5.170;2023-04-03T14:01:44;660.90;;;609.70;;
47381;SDS011;33128;51.580;5.170;2023-04-03T14:04:17;629.37;;;582.73;;
47381;SDS011;33128;51.580;5.170;2023-04-03T14:06:47;682.83;;;628.30;;
47381;SDS011;33128;51.580;5.170;2023-04-03T14:09:14;700.00;;;644.35;;
47381;SDS011;33128;51.580;5.170;2023-04-03T14:11:41;701.60;;;645.38;;
47381;SDS011;33128;51.580;5.170;2023-04-03T14:14:15;754.40;;;692.92;;
47381;SDS011;33128;51.580;5.170;2023-04-03T14:17:02;717.55;;;661.80;;
47381;SDS011;33128;51.580;5.170;2023-04-03T14:19:35;717.70;;;661.97;;
47381;SDS011;33128;51.580;5.170;2023-04-03T14:22:06;783.15;;;721.00;;
47381;SDS011;33128;51.580;5.170;2023-04-03T14:24:41;738.53;;;679.30;;
47381;SDS011;33128;51.580;5.170;2023-04-03T14:27:25;796.97;;;732.20;;
47381;SDS011;33128;51.580;5.170;2023-04-03T14:29:59;692.47;;;638.55;;
47381;SDS011;33128;51.580;5.170;2023-04-03T14:32:28;339.88;;;315.50;;
47381;SDS011;33128;51.580;5.170;2023-04-03T14:34:54;763.42;;;699.75;;
47381;SDS011;33128;51.580;5.170;2023-04-03T14:37:24;710.80;;;655.95;;
47381;SDS011;33128;51.580;5.170;2023-04-03T14:39:53;715.20;;;658.58;;
47381;SDS011;33128;51.580;5.170;2023-04-03T14:42:21;487.23;;;447.80;;
47381;SDS011;33128;51.580;5.170;2023-04-03T14:44:52;735.17;;;676.28;;
47381;SDS011;33128;51.580;5.170;2023-04-03T14:47:23;416.67;;;381.90;;
47381;SDS011;33128;51.580;5.170;2023-04-03T14:49:51;728.88;;;669.65;;
47381;SDS011;33128;51.580;5.170;2023-04-03T14:52:21;752.17;;;688.28;;
47381;SDS011;33128;51.580;5.170;2023-04-03T14:54:52;648.42;;;593.75;;
47381;SDS011;33128;51.580;5.170;2023-04-03T14:57:18;471.50;;;434.30;;
47381;SDS011;33128;51.580;5.170;2023-04-03T14:59:45;798.28;;;733.72;;
47381;SDS011;33128;51.580;5.170;2023-04-03T15:04:49;704.90;;;646.28;;
47381;SDS011;33128;51.580;5.170;2023-04-03T15:07:14;755.05;;;692.58;;
47381;SDS011;33128;51.580;5.170;2023-04-03T15:09:41;746.22;;;683.15;;
47381;SDS011;33128;51.580;5.170;2023-04-03T15:12:07;780.90;;;718.22;;
47381;SDS011;33128;51.580;5.170;2023-04-03T15:14:33;721.17;;;658.78;;
47381;SDS011;33128;51.580;5.170;2023-04-03T15:16:59;712.13;;;649.47;;
47381;SDS011;33128;51.580;5.170;2023-04-03T15:19:25;754.05;;;692.40;;
47381;SDS011;33128;51.580;5.170;2023-04-03T15:21:51;698.90;;;643.72;;
47381;SDS011;33128;51.580;5.170;2023-04-03T15:24:16;716.60;;;661.30;;
47381;SDS011;33128;51.580;5.170;2023-04-03T15:26:42;729.55;;;669.28;;
47381;SDS011;33128;51.580;5.170;2023-04-03T15:29:08;811.65;;;744.85;;
47381;SDS011;33128;51.580;5.170;2023-04-03T15:31:34;791.92;;;727.35;;
47381;SDS011;33128;51.580;5.170;2023-04-03T15:33:59;763.63;;;699.65;;
47381;SDS011;33128;51.580;5.170;2023-04-03T15:36:25;815.85;;;751.28;;
47381;SDS011;33128;51.580;5.170;2023-04-03T15:38:51;810.38;;;744.50;;
47381;SDS011;33128;51.580;5.170;2023-04-03T15:41:16;851.67;;;784.05;;
47381;SDS011;33128;51.580;5.170;2023-04-03T15:43:42;807.67;;;743.42;;
47381;SDS011;33128;51.580;5.170;2023-04-03T15:46:08;819.92;;;752.88;;
47381;SDS011;33128;51.580;5.170;2023-04-03T15:48:33;812.30;;;746.03;;
47381;SDS011;33128;51.580;5.170;2023-04-03T15:51:01;830.78;;;765.67;;
47381;SDS011;33128;51.580;5.170;2023-04-03T15:53:27;743.17;;;679.00;;
47381;SDS011;33128;51.580;5.170;2023-04-03T15:55:52;808.90;;;743.08;;
47381;SDS011;33128;51.580;5.170;2023-04-03T15:58:18;796.95;;;731.42;;
47381;SDS011;33128;51.580;5.170;2023-04-03T16:00:43;695.85;;;632.88;;
47381;SDS011;33128;51.580;5.170;2023-04-03T16:03:15;797.75;;;734.28;;
47381;SDS011;33128;51.580;5.170;2023-04-03T16:05:43;847.03;;;779.05;;
47381;SDS011;33128;51.580;5.170;2023-04-03T16:08:09;848.80;;;779.17;;
47381;SDS011;33128;51.580;5.170;2023-04-03T16:10:35;852.30;;;782.15;;
47381;SDS011;33128;51.580;5.170;2023-04-03T16:13:02;704.75;;;642.17;;
47381;SDS011;33128;51.580;5.170;2023-04-03T16:15:29;782.42;;;716.53;;
47381;SDS011;33128;51.580;5.170;2023-04-03T16:20:24;806.85;;;740.92;;
47381;SDS011;33128;51.580;5.170;2023-04-03T16:22:51;855.85;;;784.90;;
47381;SDS011;33128;51.580;5.170;2023-04-03T16:25:16;28.15;;;26.58;;